Time;durP1;ratioP1;P1;durP2;ratioP2;P2;SDS_P1;SDS_P2;PMS_P1;PMS_P2;Temp;Humidity;BMP_temperature;BMP_pressure;BME280_temperature;BME280_humidity;BME280_pressure;Samples;Min_cycle;Max_cycle;Signal;HPM_P1;HPM_P2
2021/06/16 00:00:09;;;;;;;3.00;2.80;;;22.20;96.00;;;;;;5055224;28;20405;-59
2021/06/16 00:02:35;;;;;;;3.40;2.80;;;22.20;96.00;;;;;;5055060;28;20171;-59
2021/06/16 00:05:01;;;;;;;5.23;2.93;;;22.20;96.30;;;;;;5054920;28;20421;-58
2021/06/16 00:07:27;;;;;;;3.90;2.70;;;22.10;96.30;;;;;;5054872;28;20195;-59
2021/06/16 00:09:53;;;;;;;2.77;2.57;;;22.10;96.70;;;;;;5054971;28;20416;-59
2021/06/16 00:12:18;;;;;;;2.60;2.40;;;22.10;97.10;;;;;;5055225;28;20178;-59
2021/06/16 00:14:44;;;;;;;3.87;2.90;;;22.20;97.20;;;;;;5055110;28;20765;-58
2021/06/16 00:17:10;;;;;;;3.10;2.90;;;22.20;97.20;;;;;;5054574;28;20167;-59
2021/06/16 00:19:36;;;;;;;5.17;2.80;;;22.20;97.20;;;;;;5054692;28;20328;-59
2021/06/16 00:22:03;;;;;;;3.93;2.57;;;22.30;97.40;;;;;;5054649;28;20179;-59
2021/06/16 00:24:29;;;;;;;4.07;2.83;;;22.20;97.70;;;;;;5036672;28;20424;-59
2021/06/16 00:26:54;;;;;;;2.93;2.60;;;22.10;98.10;;;;;;5054438;28;20449;-59
2021/06/16 00:29:20;;;;;;;6.57;3.23;;;22.00;98.30;;;;;;5054744;28;20186;-59
2021/06/16 00:31:46;;;;;;;2.93;2.60;;;21.90;98.60;;;;;;5054201;28;20177;-59
2021/06/16 00:34:12;;;;;;;3.30;3.00;;;21.90;99.10;;;;;;5054427;28;20171;-59
2021/06/16 00:36:37;;;;;;;3.80;3.20;;;21.80;99.30;;;;;;5054591;28;20178;-59
2021/06/16 00:39:08;;;;;;;3.07;2.87;;;21.90;99.40;;;;;;5054319;28;20504;-59
2021/06/16 00:41:34;;;;;;;4.30;3.30;;;21.90;99.60;;;;;;5053418;28;20178;-59
2021/06/16 00:44:00;;;;;;;6.70;3.33;;;21.80;99.50;;;;;;5054223;28;20406;-58
2021/06/16 00:46:26;;;;;;;5.23;2.80;;;21.90;99.80;;;;;;5053943;28;20202;-58
2021/06/16 00:48:51;;;;;;;3.27;2.90;;;21.90;99.50;;;;;;5053871;28;20166;-59
2021/06/16 00:51:17;;;;;;;2.90;2.70;;;21.90;99.80;;;;;;5054144;28;20170;-59
2021/06/16 00:53:42;;;;;;;3.47;2.90;;;22.00;99.70;;;;;;5035653;28;20178;-59
2021/06/16 00:56:08;;;;;;;3.27;2.97;;;22.00;99.80;;;;;;5054155;28;20320;-59
2021/06/16 00:58:34;;;;;;;3.53;3.23;;;22.00;99.90;;;;;;5054263;28;20175;-58
2021/06/16 01:01:13;;;;;;;3.40;3.10;;;22.00;99.90;;;;;;5053887;28;20662;-60
2021/06/16 01:03:50;;;;;;;4.63;3.73;;;22.00;99.90;;;;;;5053862;28;20220;-59
2021/06/16 01:06:28;;;;;;;3.10;2.90;;;22.00;99.90;;;;;;5053728;28;20562;-59
2021/06/16 01:09:09;;;;;;;6.00;3.53;;;21.90;99.90;;;;;;5053760;28;20474;-59
2021/06/16 01:11:44;;;;;;;5.67;3.40;;;21.80;99.90;;;;;;5053714;28;20384;-59
2021/06/16 01:14:13;;;;;;;3.90;3.60;;;21.70;99.90;;;;;;5053934;28;20391;-59
2021/06/16 01:16:53;;;;;;;6.53;3.40;;;21.60;99.90;;;;;;5053779;28;20502;-59
2021/06/16 01:19:44;;;;;;;4.10;3.63;;;21.60;99.90;;;;;;5053371;28;20394;-58
2021/06/16 01:22:16;;;;;;;3.50;3.20;;;21.50;99.90;;;;;;5024323;28;20436;-58
2021/06/16 01:24:47;;;;;;;3.90;3.60;;;21.50;99.90;;;;;;5049330;28;20402;-59
2021/06/16 01:27:14;;;;;;;3.57;3.23;;;21.40;99.90;;;;;;5033451;28;20469;-59
2021/06/16 01:29:41;;;;;;;4.50;3.67;;;21.40;99.90;;;;;;5033489;28;20402;-59
2021/06/16 01:32:08;;;;;;;6.03;3.93;;;21.30;99.90;;;;;;5033412;28;20398;-59
2021/06/16 01:34:34;;;;;;;3.83;3.53;;;21.30;99.90;;;;;;5033015;28;20443;-59
2021/06/16 01:37:01;;;;;;;4.77;4.10;;;21.30;99.90;;;;;;5033650;28;20402;-59
2021/06/16 01:39:29;;;;;;;3.87;3.57;;;21.30;99.90;;;;;;5048283;28;20943;-59
2021/06/16 01:41:57;;;;;;;5.10;3.43;;;21.30;99.90;;;;;;5052446;28;20409;-59
2021/06/16 01:44:24;;;;;;;4.00;3.70;;;21.20;99.90;;;;;;5053163;28;20406;-58
2021/06/16 01:46:52;;;;;;;3.73;3.43;;;21.20;99.90;;;;;;5052915;28;20882;-59
2021/06/16 01:49:21;;;;;;;6.80;4.20;;;21.10;99.90;;;;;;5053093;28;20859;-59
2021/06/16 01:51:48;;;;;;;5.20;3.90;;;21.10;99.90;;;;;;5053095;28;20492;-59
2021/06/16 01:54:16;;;;;;;4.87;3.53;;;21.10;99.90;;;;;;5052881;28;20413;-59
2021/06/16 01:56:43;;;;;;;4.30;3.70;;;21.10;99.90;;;;;;5053302;28;20429;-59
2021/06/16 01:59:10;;;;;;;4.40;4.03;;;21.10;99.90;;;;;;5053345;28;20405;-55
2021/06/16 02:01:36;;;;;;;4.90;4.20;;;21.00;99.90;;;;;;5053769;28;20496;-57
2021/06/16 02:04:02;;;;;;;5.93;3.60;;;21.00;99.90;;;;;;5052595;28;20497;-59
2021/06/16 02:06:33;;;;;;;4.03;3.47;;;20.90;99.90;;;;;;5052752;28;20218;-59
2021/06/16 02:09:01;;;;;;;3.93;3.50;;;20.90;99.90;;;;;;5053002;28;20389;-58
2021/06/16 02:11:30;;;;;;;5.00;3.80;;;20.90;99.90;;;;;;5053051;28;20409;-57
2021/06/16 02:13:59;;;;;;;4.67;4.27;;;20.80;99.90;;;;;;5053319;28;20531;-55
2021/06/16 02:16:57;;;;;;;4.10;3.70;;;20.80;99.90;;;;;;5053155;28;20428;-58
2021/06/16 02:19:33;;;;;;;4.03;3.70;;;20.80;99.90;;;;;;5034311;28;20425;-58
2021/06/16 02:22:00;;;;;;;5.17;3.57;;;20.60;99.90;;;;;;5052990;28;20875;-58
2021/06/16 02:24:27;;;;;;;4.20;3.80;;;20.60;99.90;;;;;;5052726;28;20405;-57
2021/06/16 02:26:53;;;;;;;4.87;4.37;;;20.60;99.90;;;;;;5052789;28;20456;-59
2021/06/16 02:29:20;;;;;;;4.00;3.60;;;20.60;99.90;;;;;;5052926;28;20405;-59
2021/06/16 02:31:46;;;;;;;4.07;3.67;;;20.70;99.90;;;;;;5052943;28;20412;-59
2021/06/16 02:34:12;;;;;;;4.20;3.80;;;20.80;99.90;;;;;;5052372;28;20520;-57
2021/06/16 02:36:44;;;;;;;4.37;3.90;;;20.80;99.90;;;;;;5052557;28;20685;-58
2021/06/16 02:39:21;;;;;;;4.80;4.30;;;20.60;99.90;;;;;;5034522;28;20410;-59
2021/06/16 02:41:48;;;;;;;4.00;3.70;;;20.30;99.90;;;;;;5052660;28;20435;-59
2021/06/16 02:44:15;;;;;;;4.73;4.23;;;20.10;99.90;;;;;;5052459;28;20492;-59
2021/06/16 02:46:44;;;;;;;5.23;3.83;;;20.30;99.90;;;;;;5089720;22;20520;-56
2021/06/16 02:49:11;;;;;;;4.37;3.97;;;20.30;99.90;;;;;;5072870;28;20813;-56
2021/06/16 02:51:39;;;;;;;4.63;4.17;;;20.40;99.90;;;;;;5073739;28;20401;-56
2021/06/16 02:54:09;;;;;;;6.23;4.50;;;20.40;99.90;;;;;;5076306;28;20400;-57
2021/06/16 02:56:38;;;;;;;5.87;4.23;;;20.40;99.90;;;;;;5075989;28;20440;-55
2021/06/16 02:59:05;;;;;;;5.90;4.20;;;20.50;99.90;;;;;;5076607;28;20776;-55
2021/06/16 03:01:32;;;;;;;3.90;3.60;;;20.50;99.90;;;;;;5076888;28;20393;-57
2021/06/16 03:03:59;;;;;;;5.90;4.40;;;20.50;99.90;;;;;;5076622;28;20407;-56
2021/06/16 03:06:25;;;;;;;4.53;4.10;;;20.50;99.90;;;;;;5058640;28;20477;-54
2021/06/16 03:08:55;;;;;;;3.43;3.13;;;20.50;99.90;;;;;;5076241;28;20432;-52
2021/06/16 03:11:23;;;;;;;4.50;4.10;;;20.50;99.90;;;;;;5076120;28;20770;-54
2021/06/16 03:13:49;;;;;;;5.20;3.83;;;20.50;99.90;;;;;;5076129;28;20919;-53
2021/06/16 03:16:16;;;;;;;5.57;3.87;;;20.40;99.90;;;;;;5076024;28;20428;-56
2021/06/16 03:18:45;;;;;;;4.90;4.40;;;20.30;99.90;;;;;;5076026;28;20408;-56
2021/06/16 03:21:12;;;;;;;4.53;4.10;;;20.20;99.90;;;;;;5076273;28;20408;-52
2021/06/16 03:23:40;;;;;;;4.80;3.50;;;20.00;99.90;;;;;;5075715;28;20915;-53
2021/06/16 03:26:07;;;;;;;4.73;4.20;;;20.10;99.90;;;;;;5075356;28;20509;-54
2021/06/16 03:28:33;;;;;;;5.40;4.23;;;20.20;99.90;;;;;;5075892;28;20444;-53
2021/06/16 03:31:01;;;;;;;4.13;3.83;;;20.20;99.90;;;;;;5075743;28;20777;-53
2021/06/16 03:33:28;;;;;;;4.00;3.70;;;20.30;99.90;;;;;;5075636;28;20447;-53
2021/06/16 03:35:55;;;;;;;6.93;3.97;;;20.30;99.90;;;;;;5075862;28;20445;-52
2021/06/16 03:38:21;;;;;;;4.00;3.60;;;20.30;99.90;;;;;;5075421;28;20434;-53
2021/06/16 03:40:50;;;;;;;4.90;4.50;;;20.10;99.90;;;;;;5078215;28;20813;-58
2021/06/16 03:43:18;;;;;;;7.13;4.30;;;20.00;99.90;;;;;;5075518;28;20170;-54
2021/06/16 03:45:44;;;;;;;4.63;4.33;;;19.90;99.90;;;;;;5075587;28;20436;-51
2021/06/16 03:48:12;;;;;;;4.43;4.03;;;19.90;99.90;;;;;;5076078;28;20411;-51
2021/06/16 03:50:39;;;;;;;4.70;4.30;;;20.00;99.90;;;;;;5076046;28;20392;-55
2021/06/16 03:53:08;;;;;;;4.67;4.27;;;20.00;99.90;;;;;;5075387;28;20400;-56
2021/06/16 03:55:34;;;;;;;4.30;3.90;;;20.00;99.90;;;;;;5075243;28;20526;-56
2021/06/16 03:58:00;;;;;;;4.47;4.07;;;20.00;99.90;;;;;;5074937;28;20454;-56
2021/06/16 04:00:26;;;;;;;4.20;3.90;;;20.10;99.90;;;;;;5075274;28;20162;-54
2021/06/16 04:02:52;;;;;;;4.73;3.90;;;20.20;99.90;;;;;;5075462;28;20956;-56
2021/06/16 04:05:18;;;;;;;5.30;4.90;;;20.30;99.90;;;;;;5074657;28;20166;-56
2021/06/16 04:07:48;;;;;;;4.10;3.70;;;20.30;99.90;;;;;;5075572;28;20208;-56
2021/06/16 04:10:14;;;;;;;8.90;4.73;;;20.30;99.90;;;;;;5075042;28;20446;-56
2021/06/16 04:12:40;;;;;;;6.07;4.60;;;20.30;99.90;;;;;;5075330;28;20410;-56
2021/06/16 04:15:06;;;;;;;4.43;4.03;;;20.30;99.90;;;;;;5074293;28;20487;-53
2021/06/16 04:17:31;;;;;;;5.30;4.87;;;20.30;99.90;;;;;;5070998;28;20182;-56
2021/06/16 04:19:57;;;;;;;5.17;4.67;;;20.30;99.90;;;;;;5055422;28;20413;-56
2021/06/16 04:22:23;;;;;;;7.00;4.57;;;20.40;99.90;;;;;;5055370;28;20177;-56
2021/06/16 04:24:49;;;;;;;5.10;4.60;;;20.60;99.90;;;;;;5054924;28;20175;-55
2021/06/16 04:27:15;;;;;;;5.07;4.67;;;20.60;99.90;;;;;;5067541;28;20466;-56
2021/06/16 04:29:41;;;;;;;5.37;4.97;;;20.70;99.90;;;;;;5074803;28;20157;-54
2021/06/16 04:32:09;;;;;;;6.13;4.47;;;20.70;99.90;;;;;;5075034;28;20253;-56
2021/06/16 04:34:34;;;;;;;6.03;4.83;;;20.70;99.90;;;;;;5075060;28;20404;-56
2021/06/16 04:37:00;;;;;;;4.97;4.10;;;20.80;99.90;;;;;;5074597;28;20434;-56
2021/06/16 04:39:26;;;;;;;6.30;5.10;;;20.70;99.90;;;;;;5074698;28;20162;-56
2021/06/16 04:41:52;;;;;;;5.13;4.63;;;20.80;99.90;;;;;;5074469;28;20634;-55
2021/06/16 04:44:17;;;;;;;5.87;5.27;;;20.80;99.90;;;;;;5074547;28;20218;-56
2021/06/16 04:46:43;;;;;;;4.87;4.53;;;20.90;99.90;;;;;;5074340;28;20632;-56
2021/06/16 04:49:08;;;;;;;4.63;4.13;;;21.00;99.90;;;;;;5074281;28;20639;-54
2021/06/16 04:51:34;;;;;;;6.90;5.13;;;21.00;99.90;;;;;;5074698;28;20526;-56
2021/06/16 04:54:00;;;;;;;4.70;4.27;;;21.00;99.90;;;;;;5074122;28;20158;-56
2021/06/16 04:56:25;;;;;;;7.00;4.70;;;21.10;99.90;;;;;;5073779;28;20217;-56
2021/06/16 04:58:51;;;;;;;4.47;4.17;;;21.10;99.90;;;;;;5074087;28;20231;-55
2021/06/16 05:01:17;;;;;;;5.47;4.93;;;21.20;99.90;;;;;;5073964;28;20190;-54
2021/06/16 05:03:42;;;;;;;4.67;4.27;;;21.20;99.90;;;;;;5073887;28;20166;-56
2021/06/16 05:06:08;;;;;;;4.90;4.50;;;21.30;99.90;;;;;;5073916;28;20193;-57
2021/06/16 05:08:33;;;;;;;5.17;4.73;;;21.40;99.90;;;;;;5073695;28;20212;-57
2021/06/16 05:10:59;;;;;;;5.40;4.50;;;21.50;99.90;;;;;;5073845;28;20219;-57
2021/06/16 05:13:26;;;;;;;4.70;4.23;;;21.60;99.90;;;;;;5073556;28;20304;-53
2021/06/16 05:15:54;;;;;;;4.97;4.57;;;21.70;99.90;;;;;;5072762;28;20182;-54
2021/06/16 05:18:20;;;;;;;5.90;5.03;;;21.80;99.90;;;;;;5073656;28;20396;-55
2021/06/16 05:20:46;;;;;;;5.30;4.17;;;21.80;99.90;;;;;;5074001;28;20420;-55
2021/06/16 05:23:12;;;;;;;5.13;4.50;;;21.90;99.90;;;;;;5073926;28;20420;-57
2021/06/16 05:25:41;;;;;;;4.70;4.17;;;22.00;99.90;;;;;;5073844;28;20190;-55
2021/06/16 05:28:08;;;;;;;5.97;4.57;;;22.10;99.90;;;;;;5073672;28;20404;-55
2021/06/16 05:30:33;;;;;;;4.30;4.00;;;22.20;99.90;;;;;;5074228;28;20404;-55
2021/06/16 05:32:59;;;;;;;5.33;4.40;;;22.20;99.90;;;;;;5073933;28;20389;-51
2021/06/16 05:35:25;;;;;;;5.93;4.90;;;22.30;99.90;;;;;;5073597;28;20182;-54
2021/06/16 05:37:50;;;;;;;5.50;4.10;;;22.40;99.90;;;;;;5073646;28;20184;-53
2021/06/16 05:40:16;;;;;;;5.03;4.47;;;22.50;99.90;;;;;;5073491;28;20173;-51
2021/06/16 05:42:42;;;;;;;8.07;4.70;;;22.60;99.90;;;;;;5073337;28;20162;-54
2021/06/16 05:45:08;;;;;;;5.17;4.77;;;22.60;99.90;;;;;;5073633;28;20925;-52
2021/06/16 05:47:35;;;;;;;4.80;3.70;;;22.70;99.90;;;;;;5075080;28;20190;-54
2021/06/16 05:50:00;;;;;;;8.87;4.47;;;22.80;99.90;;;;;;5073281;28;20415;-54
2021/06/16 05:52:26;;;;;;;4.40;4.00;;;22.90;99.90;;;;;;5073335;28;20899;-55
2021/06/16 05:54:52;;;;;;;5.20;4.70;;;23.00;99.90;;;;;;5072724;28;20158;-54
2021/06/16 05:57:17;;;;;;;4.63;4.13;;;23.10;99.90;;;;;;5072575;28;20354;-54
2021/06/16 05:59:43;;;;;;;4.83;4.43;;;23.20;99.90;;;;;;5073309;28;20174;-54
2021/06/16 06:02:08;;;;;;;5.10;4.57;;;23.30;99.90;;;;;;5072148;28;20638;-53
2021/06/16 06:04:35;;;;;;;5.40;4.63;;;23.40;99.90;;;;;;5073009;28;20212;-54
2021/06/16 06:07:02;;;;;;;6.30;4.50;;;23.50;99.90;;;;;;5072955;28;20235;-55
2021/06/16 06:09:28;;;;;;;5.00;4.60;;;23.60;99.90;;;;;;5072803;28;20422;-55
2021/06/16 06:11:54;;;;;;;6.10;4.70;;;23.70;99.90;;;;;;5072950;28;20409;-54
2021/06/16 06:14:19;;;;;;;4.37;4.00;;;23.80;99.90;;;;;;5073430;28;20166;-54
2021/06/16 06:16:45;;;;;;;4.80;4.00;;;23.90;99.90;;;;;;5072609;28;20186;-55
2021/06/16 06:19:10;;;;;;;5.87;4.43;;;24.00;99.90;;;;;;5072897;28;20631;-52
2021/06/16 06:21:36;;;;;;;5.13;4.33;;;24.10;99.90;;;;;;5072914;28;20539;-52
2021/06/16 06:24:03;;;;;;;4.20;3.87;;;24.10;99.90;;;;;;5073120;28;20235;-54
2021/06/16 06:26:29;;;;;;;4.43;4.03;;;24.20;99.90;;;;;;5073095;28;20236;-51
2021/06/16 06:28:55;;;;;;;5.03;4.33;;;24.30;99.90;;;;;;5076555;28;20404;-55
2021/06/16 06:31:21;;;;;;;4.70;4.20;;;24.20;99.90;;;;;;5075882;28;20174;-50
2021/06/16 06:33:46;;;;;;;4.80;4.40;;;24.40;99.90;;;;;;5076985;28;20166;-54
2021/06/16 06:36:12;;;;;;;6.13;4.63;;;24.60;99.90;;;;;;5058718;28;21001;-53
2021/06/16 06:38:38;;;;;;;6.60;4.10;;;24.80;99.90;;;;;;5058796;28;20223;-53
2021/06/16 06:41:03;;;;;;;4.70;4.30;;;24.90;99.90;;;;;;5058857;28;20185;-52
2021/06/16 06:43:29;;;;;;;4.30;3.90;;;24.80;99.90;;;;;;5075436;28;20870;-53
2021/06/16 06:45:55;;;;;;;6.70;4.10;;;24.80;99.90;;;;;;5076538;28;20222;-47
2021/06/16 06:48:20;;;;;;;5.50;4.40;;;25.00;99.90;;;;;;5076929;28;20568;-51
2021/06/16 06:50:46;;;;;;;5.87;4.60;;;24.80;99.70;;;;;;5076516;28;20173;-54
2021/06/16 06:53:14;;;;;;;5.20;4.47;;;25.00;99.20;;;;;;5058760;28;20276;-50
2021/06/16 06:55:41;;;;;;;5.73;4.63;;;25.20;99.90;;;;;;5076906;28;20182;-51
2021/06/16 06:58:07;;;;;;;4.50;4.10;;;25.30;98.80;;;;;;5077261;28;20411;-51
2021/06/16 07:00:32;;;;;;;6.13;4.70;;;25.40;98.90;;;;;;5078387;28;20404;-51
2021/06/16 07:02:58;;;;;;;5.33;4.60;;;25.60;99.10;;;;;;5077442;28;20181;-50
2021/06/16 07:05:25;;;;;;;6.17;4.33;;;25.70;99.00;;;;;;5077746;28;20265;-53
2021/06/16 07:07:51;;;;;;;6.40;5.20;;;25.80;98.60;;;;;;5074985;28;20688;-54
2021/06/16 07:10:17;;;;;;;4.50;4.10;;;25.90;98.70;;;;;;5067320;28;20487;-54
2021/06/16 07:12:42;;;;;;;5.13;4.23;;;26.00;98.10;;;;;;5076242;28;20761;-53
2021/06/16 07:15:09;;;;;;;7.13;4.77;;;26.20;97.90;;;;;;5076044;28;20263;-51
2021/06/16 07:17:35;;;;;;;7.57;4.07;;;26.30;98.10;;;;;;5076386;28;20178;-55
2021/06/16 07:20:03;;;;;;;10.30;4.57;;;26.10;96.70;;;;;;5075719;28;20408;-55
2021/06/16 07:22:28;;;;;;;5.00;4.50;;;26.10;98.00;;;;;;5076018;28;20897;-55
2021/06/16 07:24:54;;;;;;;6.23;4.53;;;26.30;97.10;;;;;;5076584;28;20462;-58
2021/06/16 07:27:19;;;;;;;5.10;4.30;;;26.20;97.10;;;;;;5075989;28;20636;-58
2021/06/16 07:29:45;;;;;;;7.73;5.87;;;26.20;97.50;;;;;;5076250;28;20178;-59
2021/06/16 07:32:11;;;;;;;5.23;4.30;;;26.20;97.30;;;;;;5076277;28;20170;-57
2021/06/16 07:34:36;;;;;;;5.80;3.93;;;26.10;98.20;;;;;;5075532;28;20228;-59
2021/06/16 07:37:03;;;;;;;5.60;5.13;;;26.10;96.80;;;;;;5075748;28;20662;-59
2021/06/16 07:39:28;;;;;;;4.90;4.43;;;26.00;97.30;;;;;;5074467;28;20174;-59
2021/06/16 07:41:54;;;;;;;7.50;4.27;;;26.10;98.10;;;;;;5075533;28;20457;-58
2021/06/16 07:44:20;;;;;;;4.93;4.53;;;26.10;98.00;;;;;;5075687;28;20166;-58
2021/06/16 07:46:46;;;;;;;6.73;4.47;;;26.30;97.70;;;;;;5075226;28;20221;-58
2021/06/16 07:49:11;;;;;;;4.77;4.37;;;26.40;97.80;;;;;;5075128;28;20618;-59
2021/06/16 07:51:37;;;;;;;6.23;4.77;;;26.50;96.80;;;;;;5078177;28;20174;-58
2021/06/16 07:54:03;;;;;;;5.37;4.80;;;26.40;97.40;;;;;;5075345;28;20177;-59
2021/06/16 07:56:28;;;;;;;5.13;4.63;;;26.30;97.20;;;;;;5075492;28;20194;-59
2021/06/16 07:58:54;;;;;;;5.67;4.10;;;26.40;97.20;;;;;;5074165;28;20228;-57
2021/06/16 08:01:20;;;;;;;8.40;5.43;;;26.50;97.20;;;;;;5075973;28;20181;-59
2021/06/16 08:03:45;;;;;;;10.63;5.10;;;26.40;97.40;;;;;;5076301;28;20173;-58
2021/06/16 08:06:11;;;;;;;9.10;5.03;;;26.50;96.90;;;;;;5074882;28;20605;-54
2021/06/16 08:08:37;;;;;;;4.87;3.47;;;26.70;96.10;;;;;;5075260;28;20169;-57
2021/06/16 08:11:03;;;;;;;6.10;4.20;;;26.50;94.20;;;;;;5075486;28;20166;-58
2021/06/16 08:13:31;;;;;;;7.07;3.93;;;26.60;95.20;;;;;;5074931;28;20205;-57
2021/06/16 08:15:57;;;;;;;7.37;3.83;;;26.60;95.30;;;;;;5075078;28;20565;-59
2021/06/16 08:18:23;;;;;;;6.90;3.67;;;26.60;93.80;;;;;;5075335;28;20457;-59
2021/06/16 08:20:48;;;;;;;4.20;3.10;;;26.90;92.60;;;;;;5075428;28;20822;-59
2021/06/16 08:23:14;;;;;;;4.57;3.33;;;26.90;92.00;;;;;;5075128;28;20181;-58
2021/06/16 08:25:41;;;;;;;4.90;3.20;;;27.10;93.00;;;;;;5074949;28;20563;-58
2021/06/16 08:28:06;;;;;;;4.13;3.33;;;27.30;92.40;;;;;;5074150;28;20867;-57
2021/06/16 08:30:32;;;;;;;5.17;3.40;;;27.60;92.50;;;;;;5075372;28;20415;-59
2021/06/16 08:32:58;;;;;;;3.90;3.07;;;27.90;91.40;;;;;;5075121;28;20259;-54
2021/06/16 08:35:23;;;;;;;3.63;3.33;;;27.80;90.50;;;;;;5074944;28;20252;-55
2021/06/16 08:37:49;;;;;;;4.60;3.30;;;27.80;90.30;;;;;;5075131;28;20174;-57
2021/06/16 08:40:16;;;;;;;3.30;3.00;;;27.90;88.50;;;;;;5056852;28;20166;-58
2021/06/16 08:42:43;;;;;;;2.70;2.27;;;28.00;89.90;;;;;;5074413;28;20544;-56
2021/06/16 08:45:09;;;;;;;4.93;2.90;;;27.90;88.40;;;;;;5074535;28;20489;-49
2021/06/16 08:47:35;;;;;;;5.63;3.27;;;28.10;86.70;;;;;;5074471;28;20458;-57
2021/06/16 08:50:11;;;;;;;4.67;3.27;;;28.20;86.10;;;;;;5106151;22;20487;-58
2021/06/16 08:52:38;;;;;;;4.03;2.90;;;28.10;88.80;;;;;;5095339;28;20400;-58
2021/06/16 08:55:09;;;;;;;5.80;3.07;;;28.10;86.70;;;;;;5094767;28;20419;-58
2021/06/16 08:57:35;;;;;;;4.93;3.10;;;28.20;87.50;;;;;;5094605;28;20492;-57
2021/06/16 09:00:03;;;;;;;4.70;3.20;;;28.20;85.30;;;;;;5094349;28;20545;-58
2021/06/16 09:02:29;;;;;;;3.00;2.80;;;28.10;85.10;;;;;;5094339;28;20579;-57
2021/06/16 09:04:56;;;;;;;4.40;3.17;;;28.00;85.40;;;;;;5094313;28;20399;-58
2021/06/16 09:07:27;;;;;;;3.60;2.90;;;28.20;85.90;;;;;;5094142;28;20192;-57
2021/06/16 09:10:13;;;;;;;3.10;2.87;;;28.30;83.70;;;;;;5094654;28;20819;-58
2021/06/16 09:12:45;;;;;;;5.53;3.00;;;28.30;85.70;;;;;;5094094;28;20816;-59
2021/06/16 09:15:17;;;;;;;3.33;3.00;;;28.30;84.10;;;;;;5093888;28;20880;-59
2021/06/16 09:18:02;;;;;;;3.53;3.23;;;28.40;85.40;;;;;;5094641;28;20775;-59
2021/06/16 09:20:29;;;;;;;3.20;2.90;;;28.40;84.80;;;;;;5094328;28;20423;-58
2021/06/16 09:23:28;;;;;;;5.90;3.53;;;28.50;85.20;;;;;;5093891;28;20403;-58
2021/06/16 09:26:07;;;;;;;5.30;3.40;;;28.60;84.20;;;;;;5049669;28;20776;-58
2021/06/16 09:28:51;;;;;;;7.03;3.00;;;28.70;85.70;;;;;;5093191;28;20437;-57
2021/06/16 09:31:19;;;;;;;3.90;2.60;;;28.90;87.40;;;;;;5093924;28;20552;-58
2021/06/16 09:33:46;;;;;;;3.63;3.00;;;28.70;84.00;;;;;;5093561;28;20396;-58
2021/06/16 09:36:15;;;;;;;6.60;3.67;;;28.70;83.80;;;;;;5093719;28;20423;-59
2021/06/16 09:38:44;;;;;;;5.70;3.37;;;28.70;83.90;;;;;;5093607;28;20396;-59
2021/06/16 09:41:11;;;;;;;3.70;3.13;;;28.80;85.50;;;;;;5093578;28;20434;-59
2021/06/16 09:43:39;;;;;;;3.53;2.90;;;28.80;84.50;;;;;;5093218;28;20410;-58
2021/06/16 09:46:06;;;;;;;4.53;2.53;;;28.80;82.80;;;;;;5093844;28;20446;-58
2021/06/16 09:48:34;;;;;;;4.47;3.37;;;29.00;83.30;;;;;;5096172;28;20392;-58
2021/06/16 09:51:25;;;;;;;3.73;2.97;;;29.10;82.20;;;;;;5093771;28;20787;-57
2021/06/16 09:54:11;;;;;;;3.50;3.20;;;29.30;82.40;;;;;;5093459;28;20872;-59
2021/06/16 09:56:38;;;;;;;4.53;3.07;;;29.30;80.20;;;;;;5093645;28;20411;-57
2021/06/16 09:59:05;;;;;;;4.17;3.17;;;29.20;81.20;;;;;;5092599;28;20403;-58
2021/06/16 10:01:44;;;;;;;5.10;3.30;;;29.50;81.30;;;;;;5090620;28;20430;-58
2021/06/16 10:04:10;;;;;;;3.90;3.50;;;29.70;81.50;;;;;;5085615;28;20399;-58
2021/06/16 10:06:35;;;;;;;5.57;3.50;;;29.70;81.80;;;;;;5092963;28;20446;-59
2021/06/16 10:09:07;;;;;;;4.73;3.40;;;29.90;85.60;;;;;;5093343;28;20176;-59
2021/06/16 10:11:34;;;;;;;4.10;3.40;;;29.90;81.20;;;;;;5093484;28;20624;-58
2021/06/16 10:14:00;;;;;;;6.87;3.37;;;30.10;81.70;;;;;;5092952;28;20399;-59
2021/06/16 10:16:28;;;;;;;4.17;3.40;;;30.10;81.20;;;;;;5093061;28;20422;-59
2021/06/16 10:18:54;;;;;;;8.37;3.40;;;29.80;80.90;;;;;;5093062;28;20931;-59
2021/06/16 10:21:22;;;;;;;6.60;3.17;;;30.20;81.00;;;;;;5092896;28;20430;-58
2021/06/16 10:23:48;;;;;;;6.20;2.80;;;30.20;77.80;;;;;;5093061;28;20443;-58
2021/06/16 10:26:25;;;;;;;6.10;3.70;;;30.20;76.80;;;;;;5092999;28;20437;-57
2021/06/16 10:29:01;;;;;;;5.80;3.20;;;30.10;75.50;;;;;;5074976;28;20419;-59
2021/06/16 10:31:36;;;;;;;3.70;3.40;;;30.10;74.50;;;;;;5089780;28;20506;-58
2021/06/16 10:34:01;;;;;;;3.53;3.00;;;30.20;75.60;;;;;;5086101;28;20415;-59
2021/06/16 10:36:27;;;;;;;4.20;3.20;;;30.20;76.80;;;;;;5093232;28;20532;-59
2021/06/16 10:39:02;;;;;;;5.27;3.30;;;30.50;77.00;;;;;;5093050;28;20166;-59
2021/06/16 10:41:48;;;;;;;3.60;3.20;;;30.30;75.60;;;;;;5093066;28;20566;-57
2021/06/16 10:44:20;;;;;;;4.17;3.40;;;30.50;75.10;;;;;;5092758;28;20438;-58
2021/06/16 10:47:15;;;;;;;3.93;3.37;;;30.70;76.20;;;;;;5092273;28;20435;-58
2021/06/16 10:49:47;;;;;;;3.87;3.10;;;31.00;74.60;;;;;;5074977;28;20451;-59
2021/06/16 10:52:15;;;;;;;3.77;3.47;;;31.20;72.60;;;;;;5092975;28;20416;-58
2021/06/16 10:55:04;;;;;;;3.67;2.90;;;31.40;70.20;;;;;;5074400;28;20446;-58
2021/06/16 10:57:30;;;;;;;3.90;3.27;;;31.40;71.30;;;;;;5074579;28;20414;-58
2021/06/16 10:59:56;;;;;;;5.50;3.30;;;31.50;69.50;;;;;;5092651;28;20797;-58
2021/06/16 11:02:24;;;;;;;9.57;3.30;;;31.70;69.30;;;;;;5092367;28;20407;-58
2021/06/16 11:04:51;;;;;;;4.60;3.60;;;31.50;70.90;;;;;;5092726;28;20174;-58
2021/06/16 11:07:32;;;;;;;5.80;3.80;;;31.40;70.30;;;;;;5092911;28;20442;-57
2021/06/16 11:10:00;;;;;;;3.47;2.97;;;31.10;70.00;;;;;;5092439;28;21010;-58
2021/06/16 11:12:30;;;;;;;4.43;3.50;;;31.00;70.00;;;;;;5092622;28;20423;-58
2021/06/16 11:15:01;;;;;;;5.03;3.73;;;30.90;70.70;;;;;;5096144;28;20422;-58
2021/06/16 11:17:27;;;;;;;3.87;3.37;;;31.20;71.50;;;;;;5096522;28;20384;-58
2021/06/16 11:20:14;;;;;;;4.10;3.53;;;31.40;72.50;;;;;;5096609;28;20460;-58
2021/06/16 11:22:50;;;;;;;3.50;3.20;;;31.70;71.50;;;;;;5096551;28;20388;-58
2021/06/16 11:25:18;;;;;;;4.30;3.30;;;32.10;71.20;;;;;;5096210;28;20399;-58
2021/06/16 11:28:10;;;;;;;6.90;3.30;;;32.10;68.40;;;;;;5096470;28;20447;-56
2021/06/16 11:30:54;;;;;;;3.83;3.40;;;32.00;69.40;;;;;;5095975;28;20484;-55
2021/06/16 11:33:20;;;;;;;3.60;3.07;;;32.20;66.70;;;;;;5095978;28;20967;-58
2021/06/16 11:35:58;;;;;;;10.80;3.67;;;33.50;65.20;;;;;;5096140;28;20411;-59
2021/06/16 11:38:24;;;;;;;2.97;2.77;;;35.40;59.40;;;;;;5096744;28;20571;-59
2021/06/16 11:40:53;;;;;;;2.90;2.70;;;36.50;55.00;;;;;;5096006;28;20456;-59
2021/06/16 11:43:27;;;;;;;3.23;2.93;;;37.30;55.90;;;;;;5095419;28;20907;-58
2021/06/16 11:45:53;;;;;;;3.30;3.00;;;38.90;50.30;;;;;;5098302;28;20403;-57
2021/06/16 11:48:19;;;;;;;3.67;3.37;;;38.20;49.60;;;;;;5095946;28;20404;-57
2021/06/16 11:50:44;;;;;;;3.90;2.97;;;38.00;50.70;;;;;;5095818;28;20715;-56
2021/06/16 11:53:10;;;;;;;4.60;2.80;;;36.60;51.30;;;;;;5095656;28;20165;-57
2021/06/16 11:55:46;;;;;;;3.83;2.60;;;37.00;51.50;;;;;;5095635;28;20195;-58
2021/06/16 11:58:28;;;;;;;3.13;2.83;;;37.10;50.70;;;;;;5095317;28;20158;-57
2021/06/16 12:01:14;;;;;;;3.57;3.27;;;37.70;49.80;;;;;;5095748;28;20450;-59
2021/06/16 12:03:43;;;;;;;3.73;2.87;;;39.70;47.20;;;;;;5095388;28;20411;-57
2021/06/16 12:06:11;;;;;;;2.70;2.43;;;40.20;45.70;;;;;;5095180;28;20449;-58
2021/06/16 12:08:37;;;;;;;3.63;2.57;;;39.30;45.30;;;;;;5095413;28;20400;-56
2021/06/16 12:11:23;;;;;;;3.00;2.80;;;38.80;45.60;;;;;;5095389;28;20419;-58
2021/06/16 12:13:57;;;;;;;4.57;3.27;;;38.70;45.40;;;;;;5094901;28;20407;-57
2021/06/16 12:16:36;;;;;;;3.60;3.30;;;37.50;47.20;;;;;;5095316;28;20506;-58
2021/06/16 12:19:17;;;;;;;3.40;3.10;;;37.20;48.70;;;;;;5095203;28;20467;-56
2021/06/16 12:21:58;;;;;;;3.07;2.83;;;37.60;47.50;;;;;;5095209;28;20403;-57
2021/06/16 12:24:26;;;;;;;3.20;3.00;;;38.00;46.60;;;;;;5094869;28;20395;-58
2021/06/16 12:27:01;;;;;;;4.73;3.00;;;38.70;45.30;;;;;;5094951;28;20452;-58
2021/06/16 12:29:31;;;;;;;3.30;2.80;;;39.70;46.10;;;;;;5094446;28;20415;-58
2021/06/16 12:32:00;;;;;;;3.97;2.80;;;39.70;45.60;;;;;;5077810;28;20464;-58
2021/06/16 12:34:34;;;;;;;3.10;2.90;;;39.60;43.80;;;;;;5095138;28;20403;-57
2021/06/16 12:37:10;;;;;;;4.60;2.83;;;39.40;44.90;;;;;;5094621;28;20965;-56
2021/06/16 12:39:36;;;;;;;3.73;2.40;;;39.40;45.20;;;;;;5095004;28;20521;-58
2021/06/16 12:42:06;;;;;;;2.77;2.57;;;39.90;43.30;;;;;;5094621;28;20411;-58
2021/06/16 12:44:39;;;;;;;3.83;2.37;;;39.40;44.50;;;;;;5094391;28;20891;-57
2021/06/16 12:47:06;;;;;;;3.17;2.87;;;38.90;45.00;;;;;;5094656;28;20453;-56
2021/06/16 12:49:44;;;;;;;2.90;2.70;;;38.60;44.50;;;;;;5094397;28;20435;-58
2021/06/16 12:52:12;;;;;;;3.17;2.90;;;38.10;47.10;;;;;;5094667;28;20403;-57